sensor_id;sensor_type;location;lat;lon;timestamp;pressure;altitude;pressure_sealevel;temperature
61703;BMP280;47622;47.726;3.298;2022-10-31T00:01:28;99487.38;;;13.60
61703;BMP280;47622;47.726;3.298;2022-10-31T00:03:54;99506.13;;;13.58
61703;BMP280;47622;47.726;3.298;2022-10-31T00:06:21;99502.41;;;13.59
61703;BMP280;47622;47.726;3.298;2022-10-31T00:08:51;99505.81;;;13.60
61703;BMP280;47622;47.726;3.298;2022-10-31T00:11:17;99506.31;;;13.62
61703;BMP280;47622;47.726;3.298;2022-10-31T00:13:42;99502.88;;;13.53
61703;BMP280;47622;47.726;3.298;2022-10-31T00:16:34;99501.63;;;13.59
61703;BMP280;47622;47.726;3.298;2022-10-31T00:19:03;99500.72;;;13.55
61703;BMP280;47622;47.726;3.298;2022-10-31T00:21:30;99491.72;;;13.56
61703;BMP280;47622;47.726;3.298;2022-10-31T00:23:57;99489.41;;;13.54
61703;BMP280;47622;47.726;3.298;2022-10-31T00:26:24;99485.06;;;13.50
61703;BMP280;47622;47.726;3.298;2022-10-31T00:28:50;99484.59;;;13.48
61703;BMP280;47622;47.726;3.298;2022-10-31T00:31:17;99482.28;;;13.37
61703;BMP280;47622;47.726;3.298;2022-10-31T00:33:42;99482.88;;;13.34
61703;BMP280;47622;47.726;3.298;2022-10-31T00:36:11;99485.84;;;13.41
61703;BMP280;47622;47.726;3.298;2022-10-31T00:38:37;99480.41;;;13.38
61703;BMP280;47622;47.726;3.298;2022-10-31T00:41:03;99484.25;;;13.32
61703;BMP280;47622;47.726;3.298;2022-10-31T00:43:28;99486.44;;;13.38
61703;BMP280;47622;47.726;3.298;2022-10-31T00:45:54;99475.63;;;13.31
61703;BMP280;47622;47.726;3.298;2022-10-31T00:48:20;99477.28;;;13.27
61703;BMP280;47622;47.726;3.298;2022-10-31T00:50:45;99485.19;;;13.27
61703;BMP280;47622;47.726;3.298;2022-10-31T00:53:11;99476.50;;;13.18
61703;BMP280;47622;47.726;3.298;2022-10-31T00:55:36;99474.00;;;13.13
61703;BMP280;47622;47.726;3.298;2022-10-31T00:58:02;99472.47;;;13.12
61703;BMP280;47622;47.726;3.298;2022-10-31T01:00:28;99474.00;;;13.13
61703;BMP280;47622;47.726;3.298;2022-10-31T01:02:53;99483.00;;;13.12
61703;BMP280;47622;47.726;3.298;2022-10-31T01:05:19;99487.50;;;13.12
61703;BMP280;47622;47.726;3.298;2022-10-31T01:07:45;99473.69;;;13.06
61703;BMP280;47622;47.726;3.298;2022-10-31T01:10:11;99464.28;;;13.05
61703;BMP280;47622;47.726;3.298;2022-10-31T01:12:40;99463.47;;;12.96
61703;BMP280;47622;47.726;3.298;2022-10-31T01:15:10;99461.44;;;13.01
61703;BMP280;47622;47.726;3.298;2022-10-31T01:17:42;99461.63;;;13.14
61703;BMP280;47622;47.726;3.298;2022-10-31T01:20:09;99458.19;;;13.13
61703;BMP280;47622;47.726;3.298;2022-10-31T01:22:35;99453.75;;;13.14
61703;BMP280;47622;47.726;3.298;2022-10-31T01:25:01;99450.03;;;13.15
61703;BMP280;47622;47.726;3.298;2022-10-31T01:27:27;99452.94;;;13.13
61703;BMP280;47622;47.726;3.298;2022-10-31T01:29:52;99450.63;;;13.12
61703;BMP280;47622;47.726;3.298;2022-10-31T01:32:18;99458.84;;;13.10
61703;BMP280;47622;47.726;3.298;2022-10-31T01:34:44;99448.47;;;13.14
61703;BMP280;47622;47.726;3.298;2022-10-31T01:37:09;99443.53;;;13.12
61703;BMP280;47622;47.726;3.298;2022-10-31T01:39:35;99437.59;;;13.06
61703;BMP280;47622;47.726;3.298;2022-10-31T01:42:01;99445.19;;;13.08
61703;BMP280;47622;47.726;3.298;2022-10-31T01:49:54;99438.72;;;13.14
61703;BMP280;47622;47.726;3.298;2022-10-31T01:52:40;99425.69;;;13.18
61703;BMP280;47622;47.726;3.298;2022-10-31T01:55:15;99435.16;;;13.19
61703;BMP280;47622;47.726;3.298;2022-10-31T01:57:48;99439.34;;;13.20
61703;BMP280;47622;47.726;3.298;2022-10-31T02:00:16;99438.88;;;13.18
61703;BMP280;47622;47.726;3.298;2022-10-31T02:02:42;99428.97;;;13.15
61703;BMP280;47622;47.726;3.298;2022-10-31T02:05:12;99439.66;;;13.18
61703;BMP280;47622;47.726;3.298;2022-10-31T02:07:44;99439.19;;;13.16
61703;BMP280;47622;47.726;3.298;2022-10-31T02:10:11;99416.25;;;13.17
61703;BMP280;47622;47.726;3.298;2022-10-31T02:12:37;99417.03;;;13.17
61703;BMP280;47622;47.726;3.298;2022-10-31T02:15:04;99405.88;;;13.12
61703;BMP280;47622;47.726;3.298;2022-10-31T02:17:31;99404.03;;;13.12
61703;BMP280;47622;47.726;3.298;2022-10-31T02:20:12;99401.66;;;13.02
61703;BMP280;47622;47.726;3.298;2022-10-31T02:23:19;99404.66;;;13.09
61703;BMP280;47622;47.726;3.298;2022-10-31T02:36:58;99371.47;;;13.08
61703;BMP280;47622;47.726;3.298;2022-10-31T02:40:03;99362.63;;;13.13
61703;BMP280;47622;47.726;3.298;2022-10-31T02:42:46;99357.84;;;13.06
61703;BMP280;47622;47.726;3.298;2022-10-31T02:45:21;99360.81;;;13.04
61703;BMP280;47622;47.726;3.298;2022-10-31T02:47:50;99349.50;;;13.04
61703;BMP280;47622;47.726;3.298;2022-10-31T02:50:33;99355.22;;;13.15
61703;BMP280;47622;47.726;3.298;2022-10-31T02:53:01;99349.66;;;13.16
61703;BMP280;47622;47.726;3.298;2022-10-31T02:58:04;99337.41;;;13.20
61703;BMP280;47622;47.726;3.298;2022-10-31T03:00:36;99340.84;;;13.12
61703;BMP280;47622;47.726;3.298;2022-10-31T03:06:12;99338.16;;;13.47
61703;BMP280;47622;47.726;3.298;2022-10-31T03:09:12;99346.63;;;13.61
61703;BMP280;47622;47.726;3.298;2022-10-31T03:11:58;99340.13;;;13.67
61703;BMP280;47622;47.726;3.298;2022-10-31T03:14:41;99342.22;;;13.82
61703;BMP280;47622;47.726;3.298;2022-10-31T03:17:15;99337.59;;;13.79
61703;BMP280;47622;47.726;3.298;2022-10-31T03:19:45;99334.97;;;13.79
61703;BMP280;47622;47.726;3.298;2022-10-31T03:22:19;99330.81;;;13.61
61703;BMP280;47622;47.726;3.298;2022-10-31T03:24:47;99325.13;;;13.50
61703;BMP280;47622;47.726;3.298;2022-10-31T03:27:18;99329.31;;;13.43
61703;BMP280;47622;47.726;3.298;2022-10-31T03:29:46;99315.56;;;13.37
61703;BMP280;47622;47.726;3.298;2022-10-31T03:32:22;99314.00;;;13.27
61703;BMP280;47622;47.726;3.298;2022-10-31T03:34:51;99310.44;;;13.23
61703;BMP280;47622;47.726;3.298;2022-10-31T03:37:19;99310.00;;;13.30
61703;BMP280;47622;47.726;3.298;2022-10-31T03:39:47;99317.25;;;13.41
61703;BMP280;47622;47.726;3.298;2022-10-31T03:42:16;99317.53;;;13.49
61703;BMP280;47622;47.726;3.298;2022-10-31T03:44:46;99318.91;;;13.55
61703;BMP280;47622;47.726;3.298;2022-10-31T03:47:15;99317.34;;;13.62
61703;BMP280;47622;47.726;3.298;2022-10-31T03:49:41;99317.28;;;13.71
61703;BMP280;47622;47.726;3.298;2022-10-31T03:54:57;99306.59;;;13.76
61703;BMP280;47622;47.726;3.298;2022-10-31T04:00:00;99312.41;;;13.90
61703;BMP280;47622;47.726;3.298;2022-10-31T04:02:31;99293.66;;;13.92
61703;BMP280;47622;47.726;3.298;2022-10-31T04:04:58;99291.34;;;13.90
61703;BMP280;47622;47.726;3.298;2022-10-31T04:07:28;99295.06;;;13.89
61703;BMP280;47622;47.726;3.298;2022-10-31T04:09:57;99290.41;;;13.86
61703;BMP280;47622;47.726;3.298;2022-10-31T04:12:25;99286.41;;;13.89
61703;BMP280;47622;47.726;3.298;2022-10-31T04:14:52;99277.72;;;13.88
61703;BMP280;47622;47.726;3.298;2022-10-31T04:17:21;99278.00;;;13.95
61703;BMP280;47622;47.726;3.298;2022-10-31T04:19:48;99274.25;;;13.96
61703;BMP280;47622;47.726;3.298;2022-10-31T04:22:14;99287.41;;;14.05
61703;BMP280;47622;47.726;3.298;2022-10-31T04:24:40;99281.34;;;14.04
61703;BMP280;47622;47.726;3.298;2022-10-31T04:27:06;99275.94;;;14.01
61703;BMP280;47622;47.726;3.298;2022-10-31T04:29:32;99279.78;;;14.03
61703;BMP280;47622;47.726;3.298;2022-10-31T04:31:57;99273.44;;;14.04
61703;BMP280;47622;47.726;3.298;2022-10-31T04:34:23;99263.94;;;14.03
61703;BMP280;47622;47.726;3.298;2022-10-31T04:36:49;99270.03;;;14.04
61703;BMP280;47622;47.726;3.298;2022-10-31T04:39:14;99275.44;;;14.08
61703;BMP280;47622;47.726;3.298;2022-10-31T04:41:40;99269.53;;;14.11
61703;BMP280;47622;47.726;3.298;2022-10-31T04:44:06;99271.69;;;14.09
61703;BMP280;47622;47.726;3.298;2022-10-31T04:46:31;99276.66;;;14.10
61703;BMP280;47622;47.726;3.298;2022-10-31T04:48:57;99267.84;;;14.06
61703;BMP280;47622;47.726;3.298;2022-10-31T04:51:23;99266.16;;;14.01
61703;BMP280;47622;47.726;3.298;2022-10-31T04:53:48;99260.16;;;13.92
61703;BMP280;47622;47.726;3.298;2022-10-31T04:56:14;99256.16;;;13.86
61703;BMP280;47622;47.726;3.298;2022-10-31T04:58:40;99258.38;;;13.76
61703;BMP280;47622;47.726;3.298;2022-10-31T05:01:05;99258.25;;;13.72
61703;BMP280;47622;47.726;3.298;2022-10-31T05:03:31;99248.19;;;13.65
61703;BMP280;47622;47.726;3.298;2022-10-31T05:05:57;99246.03;;;13.67
61703;BMP280;47622;47.726;3.298;2022-10-31T05:08:22;99243.69;;;13.66
61703;BMP280;47622;47.726;3.298;2022-10-31T05:10:48;99231.31;;;13.58
61703;BMP280;47622;47.726;3.298;2022-10-31T05:13:13;99235.50;;;13.59
61703;BMP280;47622;47.726;3.298;2022-10-31T05:15:40;99229.47;;;13.58
61703;BMP280;47622;47.726;3.298;2022-10-31T05:18:06;99233.50;;;13.56
61703;BMP280;47622;47.726;3.298;2022-10-31T05:20:32;99230.41;;;13.54
61703;BMP280;47622;47.726;3.298;2022-10-31T05:22:59;99224.06;;;13.55
61703;BMP280;47622;47.726;3.298;2022-10-31T05:25:27;99203.47;;;13.57
61703;BMP280;47622;47.726;3.298;2022-10-31T05:27:53;99190.56;;;13.55
61703;BMP280;47622;47.726;3.298;2022-10-31T05:30:22;99205.75;;;13.58
61703;BMP280;47622;47.726;3.298;2022-10-31T05:32:49;99206.78;;;13.66
61703;BMP280;47622;47.726;3.298;2022-10-31T05:35:34;99204.34;;;13.61
61703;BMP280;47622;47.726;3.298;2022-10-31T05:38:00;99207.34;;;13.51
61703;BMP280;47622;47.726;3.298;2022-10-31T05:40:27;99199.28;;;13.47
61703;BMP280;47622;47.726;3.298;2022-10-31T05:42:54;99201.34;;;13.41
61703;BMP280;47622;47.726;3.298;2022-10-31T05:45:21;99206.59;;;13.41
61703;BMP280;47622;47.726;3.298;2022-10-31T05:48:05;99193.63;;;13.36
61703;BMP280;47622;47.726;3.298;2022-10-31T05:50:32;99196.84;;;13.42
61703;BMP280;47622;47.726;3.298;2022-10-31T05:55:24;99182.72;;;13.47
61703;BMP280;47622;47.726;3.298;2022-10-31T05:57:52;99179.50;;;13.41
61703;BMP280;47622;47.726;3.298;2022-10-31T06:00:18;99173.81;;;13.30
61703;BMP280;47622;47.726;3.298;2022-10-31T06:02:44;99169.16;;;13.27
61703;BMP280;47622;47.726;3.298;2022-10-31T06:05:10;99166.69;;;13.22
61703;BMP280;47622;47.726;3.298;2022-10-31T06:07:35;99160.97;;;13.20
61703;BMP280;47622;47.726;3.298;2022-10-31T06:10:04;99159.16;;;13.12
61703;BMP280;47622;47.726;3.298;2022-10-31T06:12:30;99147.91;;;13.03
61703;BMP280;47622;47.726;3.298;2022-10-31T06:14:56;99137.69;;;12.93
61703;BMP280;47622;47.726;3.298;2022-10-31T06:17:22;99144.50;;;12.94
61703;BMP280;47622;47.726;3.298;2022-10-31T06:19:48;99147.13;;;12.94
61703;BMP280;47622;47.726;3.298;2022-10-31T06:22:13;99144.50;;;12.94
61703;BMP280;47622;47.726;3.298;2022-10-31T06:24:39;99135.03;;;13.01
61703;BMP280;47622;47.726;3.298;2022-10-31T06:27:05;99140.47;;;13.05
61703;BMP280;47622;47.726;3.298;2022-10-31T06:29:31;99145.72;;;13.05
61703;BMP280;47622;47.726;3.298;2022-10-31T06:31:56;99141.19;;;13.14
61703;BMP280;47622;47.726;3.298;2022-10-31T06:34:22;99131.09;;;13.16
61703;BMP280;47622;47.726;3.298;2022-10-31T06:36:48;99135.09;;;13.22
61703;BMP280;47622;47.726;3.298;2022-10-31T06:39:14;99129.19;;;13.25
61703;BMP280;47622;47.726;3.298;2022-10-31T06:41:40;99133.84;;;13.28
61703;BMP280;47622;47.726;3.298;2022-10-31T06:44:07;99124.38;;;13.27
61703;BMP280;47622;47.726;3.298;2022-10-31T06:46:33;99119.13;;;13.27
61703;BMP280;47622;47.726;3.298;2022-10-31T06:48:59;99113.25;;;13.30
61703;BMP280;47622;47.726;3.298;2022-10-31T06:51:25;99118.94;;;13.32
61703;BMP280;47622;47.726;3.298;2022-10-31T06:53:50;99126.41;;;13.30
61703;BMP280;47622;47.726;3.298;2022-10-31T06:56:16;99124.19;;;13.32
61703;BMP280;47622;47.726;3.298;2022-10-31T06:58:42;99137.22;;;13.37
61703;BMP280;47622;47.726;3.298;2022-10-31T07:01:08;99149.44;;;13.42
61703;BMP280;47622;47.726;3.298;2022-10-31T07:03:33;99170.00;;;13.49
61703;BMP280;47622;47.726;3.298;2022-10-31T07:05:59;99170.91;;;13.53
61703;BMP280;47622;47.726;3.298;2022-10-31T07:08:25;99176.94;;;13.62
61703;BMP280;47622;47.726;3.298;2022-10-31T07:10:55;99185.22;;;13.72
61703;BMP280;47622;47.726;3.298;2022-10-31T07:13:22;99184.72;;;13.79
61703;BMP280;47622;47.726;3.298;2022-10-31T07:15:52;99186.03;;;13.94
61703;BMP280;47622;47.726;3.298;2022-10-31T07:18:19;99182.41;;;13.98
61703;BMP280;47622;47.726;3.298;2022-10-31T07:20:45;99186.41;;;14.04
61703;BMP280;47622;47.726;3.298;2022-10-31T07:23:11;99197.22;;;14.12
61703;BMP280;47622;47.726;3.298;2022-10-31T07:25:39;99179.28;;;14.05
61703;BMP280;47622;47.726;3.298;2022-10-31T07:28:06;99166.09;;;14.05
61703;BMP280;47622;47.726;3.298;2022-10-31T07:30:32;99162.03;;;14.08
61703;BMP280;47622;47.726;3.298;2022-10-31T07:32:57;99168.47;;;14.19
61703;BMP280;47622;47.726;3.298;2022-10-31T07:35:28;99185.91;;;14.32
61703;BMP280;47622;47.726;3.298;2022-10-31T07:37:54;99193.88;;;14.44
61703;BMP280;47622;47.726;3.298;2022-10-31T07:40:21;99189.72;;;14.55
61703;BMP280;47622;47.726;3.298;2022-10-31T07:42:48;99183.41;;;14.81
61703;BMP280;47622;47.726;3.298;2022-10-31T07:45:17;99193.56;;;15.03
61703;BMP280;47622;47.726;3.298;2022-10-31T07:47:51;99204.63;;;15.42
61703;BMP280;47622;47.726;3.298;2022-10-31T07:50:22;99189.31;;;15.59
61703;BMP280;47622;47.726;3.298;2022-10-31T07:52:48;99189.19;;;15.56
61703;BMP280;47622;47.726;3.298;2022-10-31T07:55:14;99189.44;;;15.63
61703;BMP280;47622;47.726;3.298;2022-10-31T07:57:39;99184.59;;;15.53
61703;BMP280;47622;47.726;3.298;2022-10-31T08:00:10;99182.16;;;15.36
61703;BMP280;47622;47.726;3.298;2022-10-31T08:02:35;99182.81;;;15.32
61703;BMP280;47622;47.726;3.298;2022-10-31T08:05:01;99173.78;;;15.21
61703;BMP280;47622;47.726;3.298;2022-10-31T08:07:28;99175.09;;;15.15
61703;BMP280;47622;47.726;3.298;2022-10-31T08:09:55;99189.31;;;15.11
61703;BMP280;47622;47.726;3.298;2022-10-31T08:12:20;99191.84;;;15.07
61703;BMP280;47622;47.726;3.298;2022-10-31T08:14:46;99199.75;;;15.07
61703;BMP280;47622;47.726;3.298;2022-10-31T08:17:12;99201.53;;;15.15
61703;BMP280;47622;47.726;3.298;2022-10-31T08:19:38;99197.47;;;15.30
61703;BMP280;47622;47.726;3.298;2022-10-31T08:22:03;99214.06;;;15.55
61703;BMP280;47622;47.726;3.298;2022-10-31T08:24:29;99218.78;;;15.98
61703;BMP280;47622;47.726;3.298;2022-10-31T08:26:55;99201.91;;;16.03
61703;BMP280;47622;47.726;3.298;2022-10-31T08:29:20;99193.53;;;15.88
61703;BMP280;47622;47.726;3.298;2022-10-31T08:31:46;99179.66;;;15.91
61703;BMP280;47622;47.726;3.298;2022-10-31T08:34:12;99177.13;;;15.95
61703;BMP280;47622;47.726;3.298;2022-10-31T08:36:37;99189.78;;;16.02
61703;BMP280;47622;47.726;3.298;2022-10-31T08:39:03;99180.97;;;15.98
61703;BMP280;47622;47.726;3.298;2022-10-31T08:41:29;99183.88;;;16.36
61703;BMP280;47622;47.726;3.298;2022-10-31T08:43:55;99187.38;;;16.84
61703;BMP280;47622;47.726;3.298;2022-10-31T08:46:21;99173.50;;;17.73
61703;BMP280;47622;47.726;3.298;2022-10-31T08:48:50;99176.69;;;18.40
61703;BMP280;47622;47.726;3.298;2022-10-31T08:51:16;99162.88;;;18.80
61703;BMP280;47622;47.726;3.298;2022-10-31T08:53:42;99152.56;;;18.75
61703;BMP280;47622;47.726;3.298;2022-10-31T08:56:07;99150.31;;;19.30
61703;BMP280;47622;47.726;3.298;2022-10-31T08:58:33;99148.53;;;20.48
61703;BMP280;47622;47.726;3.298;2022-10-31T09:01:00;99149.13;;;21.55
61703;BMP280;47622;47.726;3.298;2022-10-31T09:03:29;99129.19;;;21.24
61703;BMP280;47622;47.726;3.298;2022-10-31T09:06:00;99108.53;;;21.07
61703;BMP280;47622;47.726;3.298;2022-10-31T09:08:26;99101.78;;;20.61
61703;BMP280;47622;47.726;3.298;2022-10-31T09:10:52;99098.13;;;20.84
61703;BMP280;47622;47.726;3.298;2022-10-31T09:13:21;99086.59;;;21.56
61703;BMP280;47622;47.726;3.298;2022-10-31T09:15:48;99084.47;;;23.09
61703;BMP280;47622;47.726;3.298;2022-10-31T09:18:17;99083.78;;;24.46
61703;BMP280;47622;47.726;3.298;2022-10-31T09:20:44;99099.66;;;25.55
61703;BMP280;47622;47.726;3.298;2022-10-31T09:23:14;99116.28;;;26.16
61703;BMP280;47622;47.726;3.298;2022-10-31T09:25:40;99105.19;;;25.91
61703;BMP280;47622;47.726;3.298;2022-10-31T09:28:08;99110.09;;;25.96
61703;BMP280;47622;47.726;3.298;2022-10-31T09:30:35;99113.25;;;25.91
61703;BMP280;47622;47.726;3.298;2022-10-31T09:33:06;99129.69;;;24.55
61703;BMP280;47622;47.726;3.298;2022-10-31T09:35:32;99127.69;;;23.04
61703;BMP280;47622;47.726;3.298;2022-10-31T09:38:01;99140.41;;;22.75
61703;BMP280;47622;47.726;3.298;2022-10-31T09:40:34;99122.47;;;22.65
61703;BMP280;47622;47.726;3.298;2022-10-31T09:45:42;99109.16;;;23.41
61703;BMP280;47622;47.726;3.298;2022-10-31T09:48:34;99112.13;;;24.47
61703;BMP280;47622;47.726;3.298;2022-10-31T09:51:12;99102.44;;;24.90
61703;BMP280;47622;47.726;3.298;2022-10-31T09:53:56;99097.22;;;24.80
61703;BMP280;47622;47.726;3.298;2022-10-31T09:56:25;99102.81;;;25.73
61703;BMP280;47622;47.726;3.298;2022-10-31T09:58:55;99094.06;;;25.42
61703;BMP280;47622;47.726;3.298;2022-10-31T10:03:56;99090.88;;;25.51
61703;BMP280;47622;47.726;3.298;2022-10-31T10:06:28;99083.44;;;24.44
61703;BMP280;47622;47.726;3.298;2022-10-31T10:08:56;99076.13;;;23.62
61703;BMP280;47622;47.726;3.298;2022-10-31T10:19:16;99081.38;;;25.93
61703;BMP280;47622;47.726;3.298;2022-10-31T10:22:05;99071.75;;;26.35
61703;BMP280;47622;47.726;3.298;2022-10-31T10:30:11;99071.91;;;26.64
61703;BMP280;47622;47.726;3.298;2022-10-31T10:32:48;99065.47;;;27.13
61703;BMP280;47622;47.726;3.298;2022-10-31T10:38:24;99070.97;;;27.71
61703;BMP280;47622;47.726;3.298;2022-10-31T10:40:52;99067.69;;;28.09
61703;BMP280;47622;47.726;3.298;2022-10-31T10:43:36;99073.31;;;28.14
61703;BMP280;47622;47.726;3.298;2022-10-31T10:49:21;99072.50;;;28.30
61703;BMP280;47622;47.726;3.298;2022-10-31T10:51:59;99064.81;;;28.28
61703;BMP280;47622;47.726;3.298;2022-10-31T10:54:46;99063.47;;;27.79
61703;BMP280;47622;47.726;3.298;2022-10-31T11:00:02;99048.94;;;27.60
61703;BMP280;47622;47.726;3.298;2022-10-31T11:02:31;99043.28;;;28.12
61703;BMP280;47622;47.726;3.298;2022-10-31T11:04:59;99050.19;;;28.67
61703;BMP280;47622;47.726;3.298;2022-10-31T11:07:25;99042.19;;;28.89
61703;BMP280;47622;47.726;3.298;2022-10-31T11:10:04;99059.69;;;28.85
61703;BMP280;47622;47.726;3.298;2022-10-31T11:12:32;99050.50;;;28.69
61703;BMP280;47622;47.726;3.298;2022-10-31T11:15:02;99053.88;;;29.33
61703;BMP280;47622;47.726;3.298;2022-10-31T11:17:33;99040.00;;;28.71
61703;BMP280;47622;47.726;3.298;2022-10-31T11:20:27;99027.38;;;28.81
61703;BMP280;47622;47.726;3.298;2022-10-31T11:23:19;99027.19;;;28.50
61703;BMP280;47622;47.726;3.298;2022-10-31T11:25:56;99020.09;;;27.73
61703;BMP280;47622;47.726;3.298;2022-10-31T11:28:22;99021.56;;;28.32
61703;BMP280;47622;47.726;3.298;2022-10-31T11:30:49;99015.84;;;28.43
61703;BMP280;47622;47.726;3.298;2022-10-31T11:33:45;99018.13;;;28.03
61703;BMP280;47622;47.726;3.298;2022-10-31T11:36:22;99010.16;;;27.99
61703;BMP280;47622;47.726;3.298;2022-10-31T11:38:49;99007.28;;;26.83
61703;BMP280;47622;47.726;3.298;2022-10-31T11:41:18;98992.88;;;26.58
61703;BMP280;47622;47.726;3.298;2022-10-31T11:43:57;98996.38;;;25.99
61703;BMP280;47622;47.726;3.298;2022-10-31T11:46:35;98997.25;;;25.73
61703;BMP280;47622;47.726;3.298;2022-10-31T11:49:04;98997.16;;;25.56
61703;BMP280;47622;47.726;3.298;2022-10-31T11:51:33;98984.66;;;25.23
61703;BMP280;47622;47.726;3.298;2022-10-31T11:54:01;98982.94;;;25.09
61703;BMP280;47622;47.726;3.298;2022-10-31T11:56:37;98976.34;;;25.14
61703;BMP280;47622;47.726;3.298;2022-10-31T11:59:05;98980.56;;;25.38
61703;BMP280;47622;47.726;3.298;2022-10-31T12:01:32;98965.50;;;24.67
61703;BMP280;47622;47.726;3.298;2022-10-31T12:04:08;98945.97;;;24.40
61703;BMP280;47622;47.726;3.298;2022-10-31T12:06:37;98948.00;;;23.98
61703;BMP280;47622;47.726;3.298;2022-10-31T12:09:23;98949.00;;;24.11
61703;BMP280;47622;47.726;3.298;2022-10-31T12:23:32;98926.56;;;24.29
61703;BMP280;47622;47.726;3.298;2022-10-31T12:26:22;98919.41;;;24.18
61703;BMP280;47622;47.726;3.298;2022-10-31T12:31:33;98914.28;;;24.01
61703;BMP280;47622;47.726;3.298;2022-10-31T12:37:19;98908.91;;;23.67
61703;BMP280;47622;47.726;3.298;2022-10-31T12:45:20;98894.75;;;23.66
61703;BMP280;47622;47.726;3.298;2022-10-31T12:53:30;98885.59;;;23.64
61703;BMP280;47622;47.726;3.298;2022-10-31T13:01:11;98875.56;;;22.86
61703;BMP280;47622;47.726;3.298;2022-10-31T13:03:46;98863.91;;;22.51
61703;BMP280;47622;47.726;3.298;2022-10-31T13:06:19;98863.59;;;22.46
61703;BMP280;47622;47.726;3.298;2022-10-31T13:08:54;98862.28;;;22.68
61703;BMP280;47622;47.726;3.298;2022-10-31T13:11:32;98859.53;;;22.79
61703;BMP280;47622;47.726;3.298;2022-10-31T13:14:11;98847.38;;;22.74
61703;BMP280;47622;47.726;3.298;2022-10-31T13:16:43;98842.38;;;22.80
61703;BMP280;47622;47.726;3.298;2022-10-31T13:19:29;98843.50;;;22.79
61703;BMP280;47622;47.726;3.298;2022-10-31T13:22:04;98845.19;;;22.58
61703;BMP280;47622;47.726;3.298;2022-10-31T13:24:39;98834.63;;;22.37
61703;BMP280;47622;47.726;3.298;2022-10-31T13:27:20;98828.75;;;22.56
61703;BMP280;47622;47.726;3.298;2022-10-31T13:32:19;98823.22;;;22.26
61703;BMP280;47622;47.726;3.298;2022-10-31T13:34:50;98814.88;;;22.13
61703;BMP280;47622;47.726;3.298;2022-10-31T13:47:38;98806.47;;;22.22
61703;BMP280;47622;47.726;3.298;2022-10-31T13:50:25;98804.91;;;22.31
61703;BMP280;47622;47.726;3.298;2022-10-31T13:52:51;98799.50;;;22.35
61703;BMP280;47622;47.726;3.298;2022-10-31T13:58:05;98800.50;;;21.89
61703;BMP280;47622;47.726;3.298;2022-10-31T14:00:44;98785.34;;;21.58
61703;BMP280;47622;47.726;3.298;2022-10-31T14:03:18;98798.34;;;21.34
61703;BMP280;47622;47.726;3.298;2022-10-31T14:05:52;98787.34;;;21.04
61703;BMP280;47622;47.726;3.298;2022-10-31T14:08:21;98784.69;;;21.04
61703;BMP280;47622;47.726;3.298;2022-10-31T14:10:50;98783.53;;;20.70
61703;BMP280;47622;47.726;3.298;2022-10-31T14:13:45;98785.44;;;20.69
61703;BMP280;47622;47.726;3.298;2022-10-31T14:16:18;98779.34;;;20.69
61703;BMP280;47622;47.726;3.298;2022-10-31T14:18:49;98781.25;;;20.79
61703;BMP280;47622;47.726;3.298;2022-10-31T14:21:26;98777.03;;;20.71
61703;BMP280;47622;47.726;3.298;2022-10-31T14:23:54;98775.53;;;20.73
61703;BMP280;47622;47.726;3.298;2022-10-31T14:26:33;98773.25;;;20.64
61703;BMP280;47622;47.726;3.298;2022-10-31T14:29:00;98777.03;;;20.71
61703;BMP280;47622;47.726;3.298;2022-10-31T14:31:36;98774.75;;;20.66
61703;BMP280;47622;47.726;3.298;2022-10-31T14:34:29;98764.09;;;20.80
61703;BMP280;47622;47.726;3.298;2022-10-31T14:40:00;98770.97;;;20.84
61703;BMP280;47622;47.726;3.298;2022-10-31T14:42:37;98774.03;;;20.83
61703;BMP280;47622;47.726;3.298;2022-10-31T14:51:33;98758.78;;;20.80
61703;BMP280;47622;47.726;3.298;2022-10-31T14:53:56;98758.78;;;20.87
61703;BMP280;47622;47.726;3.298;2022-10-31T14:56:27;98758.00;;;20.76
61703;BMP280;47622;47.726;3.298;2022-10-31T14:58:56;98750.41;;;20.53
61703;BMP280;47622;47.726;3.298;2022-10-31T15:03:49;98740.13;;;20.51
61703;BMP280;47622;47.726;3.298;2022-10-31T15:06:17;98738.94;;;20.45
61703;BMP280;47622;47.726;3.298;2022-10-31T15:08:50;98741.59;;;20.45
61703;BMP280;47622;47.726;3.298;2022-10-31T15:11:20;98740.09;;;20.44
61703;BMP280;47622;47.726;3.298;2022-10-31T15:13:53;98730.59;;;20.36
61703;BMP280;47622;47.726;3.298;2022-10-31T15:16:25;98730.53;;;20.29
61703;BMP280;47622;47.726;3.298;2022-10-31T15:19:00;98730.16;;;20.23
61703;BMP280;47622;47.726;3.298;2022-10-31T15:21:28;98726.34;;;20.21
61703;BMP280;47622;47.726;3.298;2022-10-31T15:23:56;98722.91;;;20.06
61703;BMP280;47622;47.726;3.298;2022-10-31T15:26:32;98715.28;;;20.01
61703;BMP280;47622;47.726;3.298;2022-10-31T15:29:03;98709.94;;;19.98
61703;BMP280;47622;47.726;3.298;2022-10-31T15:31:30;98709.53;;;19.95
61703;BMP280;47622;47.726;3.298;2022-10-31T15:34:11;98705.34;;;19.94
61703;BMP280;47622;47.726;3.298;2022-10-31T15:36:39;98696.97;;;19.85
61703;BMP280;47622;47.726;3.298;2022-10-31T15:39:04;98702.28;;;19.78
61703;BMP280;47622;47.726;3.298;2022-10-31T15:44:16;98694.25;;;19.68
61703;BMP280;47622;47.726;3.298;2022-10-31T15:47:01;98693.84;;;19.62
61703;BMP280;47622;47.726;3.298;2022-10-31T15:49:37;98701.41;;;19.53
61703;BMP280;47622;47.726;3.298;2022-10-31T15:52:10;98699.88;;;19.52
61703;BMP280;47622;47.726;3.298;2022-10-31T15:54:51;98690.72;;;19.46
61703;BMP280;47622;47.726;3.298;2022-10-31T15:57:19;98687.25;;;19.38
61703;BMP280;47622;47.726;3.298;2022-10-31T15:59:47;98692.91;;;19.33
61703;BMP280;47622;47.726;3.298;2022-10-31T16:02:17;98679.97;;;19.24
61703;BMP280;47622;47.726;3.298;2022-10-31T16:05:00;98684.50;;;19.20
61703;BMP280;47622;47.726;3.298;2022-10-31T16:07:28;98683.34;;;19.18
61703;BMP280;47622;47.726;3.298;2022-10-31T16:10:01;98680.66;;;19.14
61703;BMP280;47622;47.726;3.298;2022-10-31T16:12:35;98673.78;;;19.06
61703;BMP280;47622;47.726;3.298;2022-10-31T16:15:01;98669.19;;;19.00
61703;BMP280;47622;47.726;3.298;2022-10-31T16:17:28;98666.56;;;19.03
61703;BMP280;47622;47.726;3.298;2022-10-31T16:19:58;98667.66;;;18.99
61703;BMP280;47622;47.726;3.298;2022-10-31T16:22:29;98664.59;;;18.93
61703;BMP280;47622;47.726;3.298;2022-10-31T16:25:10;98653.88;;;18.82
61703;BMP280;47622;47.726;3.298;2022-10-31T16:27:37;98659.94;;;18.79